Independence of the Seas — C6WW4 — position and weather

sailwx.info

Track history (hours):
 
Tides and Currents Weather Stations Pressure Air Temp Water Temp Dewpoint Dewpoint Depression Visibility Wind Speed Wind Dir Waves Ship Positions

Independence of the Seas

Last reported at 2014-Oct-15 18:00 UTC. Time now 2014-Oct-20 13:03 UTC.
Position N 41°36' W 009°06'.

Length 339 m; draft 8.8 m.

Type: Passenger vessel. MMSI: 309374000.

Wind from 260 at 20 knots

Waves 3.0 meters (10 feet), 7 second period

Barometer 1007.0 mb
Air temperature 19.0 ° C
Visibility: greater than 2.2 NM
Dewpoint 17.5 ° C
Water temperature 19.0 ° C

Date/timePositionNaut miles runAvg speedWind from/ knotsBaromVisibWave heightAir tempDewpointWater temp
2014-Oct-15 18:00N 41°36' W 009°06'63313.3 260 / 201007.0 2.2 3.019.017.519.0
2014-Oct-13 18:24N 50°32' W 001°03'1012.2
2014-Oct-13 17:33N 50°43' W 000°59'1312.8
2014-Oct-13 16:31N 50°48' W 001°18'7 1.2
2014-Oct-13 10:30N 50°54' W 001°25'0 0.0
2014-Oct-13 08:18N 50°54' W 001°25'0 0.0
2014-Oct-13 04:18N 50°54' W 001°25'3 4.6
2014-Oct-13 03:34N 50°51' W 001°21'9 9.4
2014-Oct-13 02:34N 50°46' W 001°09'1110.8
2014-Oct-13 01:34N 50°37' W 000°59'  
2014-Oct-10 17:13N 38°36' W 009°28'1115.5
2014-Oct-10 16:30N 38°41' W 009°15'4 4.1
2014-Oct-10 15:33N 38°42' W 009°10'0 0.0
2014-Oct-10 14:33N 38°42' W 009°10'0 0.0
2014-Oct-10 13:33N 38°42' W 009°10'0 0.0
2014-Oct-10 12:33N 38°42' W 009°10'0 0.0
2014-Oct-10 11:33N 38°42' W 009°10'0 0.0
2014-Oct-10 10:33N 38°42' W 009°10'0 0.0
2014-Oct-10 09:33N 38°42' W 009°10'0 0.0
2014-Oct-10 08:33N 38°42' W 009°10'0 0.0
2014-Oct-10 07:33N 38°42' W 009°10'1 0.6
2014-Oct-10 06:33N 38°41' W 009°11'1111.4
2014-Oct-10 05:33N 38°36' W 009°24'  
2014-Oct-06 14:33N 32°33' W 016°53'6 5.4
2014-Oct-06 13:32N 32°39' W 016°55'0 0.0
2014-Oct-06 11:32N 32°39' W 016°55'0 0.0
2014-Oct-06 10:32N 32°39' W 016°55'0 0.0
2014-Oct-06 09:32N 32°39' W 016°55'0 0.0
2014-Oct-06 08:32N 32°39' W 016°55'2 1.8
2014-Oct-06 07:34N 32°38' W 016°53'10919.5
2014-Oct-06 02:00N 34°12' W 015°48'   360 / 111020.010.8 0.521.019.522.0
Track history (hours):
 
Tides and Currents Weather Stations Pressure Air Temp Water Temp Dewpoint Dewpoint Depression Visibility Wind Speed Wind Dir Waves Ship Positions

Independence of the Seas

Last reported at 2014-Oct-15 18:00 UTC. Time now 2014-Oct-20 13:03 UTC.
Position N 41°36' W 009°06'.

Length 339 m; draft 8.8 m.

Type: Passenger vessel. MMSI: 309374000.

Wind from 260 at 20 knots

Waves 3.0 meters (10 feet), 7 second period

Barometer 1007.0 mb
Air temperature 19.0 ° C
Visibility: greater than 2.2 NM
Dewpoint 17.5 ° C
Water temperature 19.0 ° C

Date/timePositionNaut miles runAvg speedWind from/ knotsBaromVisibWave heightAir tempDewpointWater temp
2014-Oct-15 18:00N 41°36' W 009°06'63313.3 260 / 201007.0 2.2 3.019.017.519.0
2014-Oct-13 18:24N 50°32' W 001°03'1012.2
2014-Oct-13 17:33N 50°43' W 000°59'1312.8
2014-Oct-13 16:31N 50°48' W 001°18'7 1.2
2014-Oct-13 10:30N 50°54' W 001°25'0 0.0
2014-Oct-13 08:18N 50°54' W 001°25'0 0.0
2014-Oct-13 04:18N 50°54' W 001°25'3 4.6
2014-Oct-13 03:34N 50°51' W 001°21'9 9.4
2014-Oct-13 02:34N 50°46' W 001°09'1110.8
2014-Oct-13 01:34N 50°37' W 000°59'  
2014-Oct-10 17:13N 38°36' W 009°28'1115.5
2014-Oct-10 16:30N 38°41' W 009°15'4 4.1
2014-Oct-10 15:33N 38°42' W 009°10'0 0.0
2014-Oct-10 14:33N 38°42' W 009°10'0 0.0
2014-Oct-10 13:33N 38°42' W 009°10'0 0.0
2014-Oct-10 12:33N 38°42' W 009°10'0 0.0
2014-Oct-10 11:33N 38°42' W 009°10'0 0.0
2014-Oct-10 10:33N 38°42' W 009°10'0 0.0
2014-Oct-10 09:33N 38°42' W 009°10'0 0.0
2014-Oct-10 08:33N 38°42' W 009°10'0 0.0
2014-Oct-10 07:33N 38°42' W 009°10'1 0.6
2014-Oct-10 06:33N 38°41' W 009°11'1111.4
2014-Oct-10 05:33N 38°36' W 009°24'  
2014-Oct-06 14:33N 32°33' W 016°53'6 5.4
2014-Oct-06 13:32N 32°39' W 016°55'0 0.0
2014-Oct-06 11:32N 32°39' W 016°55'0 0.0
2014-Oct-06 10:32N 32°39' W 016°55'0 0.0
2014-Oct-06 09:32N 32°39' W 016°55'0 0.0
2014-Oct-06 08:32N 32°39' W 016°55'2 1.8
2014-Oct-06 07:34N 32°38' W 016°53'10919.5
2014-Oct-06 02:00N 34°12' W 015°48'   360 / 111020.010.8 0.521.019.522.0

Dump ship's entire track history